EGAC/BHD METAR and TAF weather

Enter ICAO airport designator
Station Type Date Time Source
EGAC METAR 2022/07/03 13:50 UTC NOAA

EGAC 031350Z AUTO 28009KT 240V320 9999 FEW027 16/09 Q1019


Station Type Date Time Source
EGAC Decoded METAR 2022/07/03 13:50 UTC NOAA

Belfast / Harbour, United Kingdom (EGAC) 54-36N 005-53W 0M
Jul 03, 2022 - 09:50 AM EDT / 2022.07.03 1350 UTC
Wind: from the W (280 degrees) at 10 MPH (9 KT) (direction variable):0
Visibility: greater than 7 mile(s):0
Sky conditions: mostly clear
Temperature: 60 F (16 C)
Dew Point: 48 F (9 C)
Relative Humidity: 63%
Pressure (altimeter): 30.09 in. Hg (1019 hPa)
ob: EGAC 031350Z AUTO 28009KT 240V320 9999 FEW027 16/09 Q1019
cycle: 14

Station Type Date Time Source
EGAC TAF 2021/12/01 18:06 UTC NOAA

TAF TAF EGAC 010102Z 3018/0103 CNL

Example: see airport list